sensor_id;sensor_type;location;lat;lon;timestamp;temperature;humidity
13596;DHT22;6868;52.544;13.416;2022-11-02T00:02:21;11.50;99.90
13596;DHT22;6868;52.544;13.416;2022-11-02T00:04:47;11.20;99.90
13596;DHT22;6868;52.544;13.416;2022-11-02T00:07:14;11.30;99.90
13596;DHT22;6868;52.544;13.416;2022-11-02T00:09:41;11.10;99.90
13596;DHT22;6868;52.544;13.416;2022-11-02T00:12:08;11.20;99.90
13596;DHT22;6868;52.544;13.416;2022-11-02T00:14:34;11.10;99.90
13596;DHT22;6868;52.544;13.416;2022-11-02T00:17:03;11.30;99.90
13596;DHT22;6868;52.544;13.416;2022-11-02T00:19:30;11.10;99.90
13596;DHT22;6868;52.544;13.416;2022-11-02T00:21:57;11.00;99.90
13596;DHT22;6868;52.544;13.416;2022-11-02T00:24:26;11.00;99.90
13596;DHT22;6868;52.544;13.416;2022-11-02T00:26:52;11.00;99.90
13596;DHT22;6868;52.544;13.416;2022-11-02T00:29:19;11.00;99.90
13596;DHT22;6868;52.544;13.416;2022-11-02T00:31:48;11.00;99.90
13596;DHT22;6868;52.544;13.416;2022-11-02T00:34:17;11.00;99.90
13596;DHT22;6868;52.544;13.416;2022-11-02T00:36:43;11.00;99.90
13596;DHT22;6868;52.544;13.416;2022-11-02T00:39:10;11.10;99.90
13596;DHT22;6868;52.544;13.416;2022-11-02T00:41:38;11.10;99.90
13596;DHT22;6868;52.544;13.416;2022-11-02T00:44:05;11.10;99.90
13596;DHT22;6868;52.544;13.416;2022-11-02T00:46:31;11.00;99.90
13596;DHT22;6868;52.544;13.416;2022-11-02T00:48:58;11.00;99.90
13596;DHT22;6868;52.544;13.416;2022-11-02T00:51:26;10.90;99.90
13596;DHT22;6868;52.544;13.416;2022-11-02T00:53:53;10.90;99.90
13596;DHT22;6868;52.544;13.416;2022-11-02T00:56:20;10.80;99.90
13596;DHT22;6868;52.544;13.416;2022-11-02T00:58:46;10.80;99.90
13596;DHT22;6868;52.544;13.416;2022-11-02T01:01:13;10.70;99.90
13596;DHT22;6868;52.544;13.416;2022-11-02T01:03:40;10.80;99.90
13596;DHT22;6868;52.544;13.416;2022-11-02T01:06:07;10.70;99.90
13596;DHT22;6868;52.544;13.416;2022-11-02T01:08:35;10.80;99.90
13596;DHT22;6868;52.544;13.416;2022-11-02T01:11:09;10.70;99.90
13596;DHT22;6868;52.544;13.416;2022-11-02T01:13:36;10.70;99.90
13596;DHT22;6868;52.544;13.416;2022-11-02T01:16:03;10.60;99.90
13596;DHT22;6868;52.544;13.416;2022-11-02T04:00:20;9.80;99.90
13596;DHT22;6868;52.544;13.416;2022-11-02T04:02:48;9.80;99.90
13596;DHT22;6868;52.544;13.416;2022-11-02T04:05:15;9.80;99.90
13596;DHT22;6868;52.544;13.416;2022-11-02T04:07:45;9.80;99.90
13596;DHT22;6868;52.544;13.416;2022-11-02T04:10:30;9.80;99.90
13596;DHT22;6868;52.544;13.416;2022-11-02T04:12:56;9.70;99.90
13596;DHT22;6868;52.544;13.416;2022-11-02T04:15:42;9.70;99.90
13596;DHT22;6868;52.544;13.416;2022-11-02T04:18:09;9.70;99.90
13596;DHT22;6868;52.544;13.416;2022-11-02T04:20:53;9.70;99.90
13596;DHT22;6868;52.544;13.416;2022-11-02T04:23:20;9.70;99.90
13596;DHT22;6868;52.544;13.416;2022-11-02T04:26:19;9.70;99.90
13596;DHT22;6868;52.544;13.416;2022-11-02T04:28:46;9.70;99.90
13596;DHT22;6868;52.544;13.416;2022-11-02T04:31:17;9.70;99.90
13596;DHT22;6868;52.544;13.416;2022-11-02T04:33:44;9.60;99.90
13596;DHT22;6868;52.544;13.416;2022-11-02T04:36:09;9.60;99.90
13596;DHT22;6868;52.544;13.416;2022-11-02T04:38:36;9.60;99.90
13596;DHT22;6868;52.544;13.416;2022-11-02T04:41:04;9.60;99.90
13596;DHT22;6868;52.544;13.416;2022-11-02T04:43:49;9.60;99.90
13596;DHT22;6868;52.544;13.416;2022-11-02T04:46:17;9.60;99.90
13596;DHT22;6868;52.544;13.416;2022-11-02T04:48:44;9.60;99.90
13596;DHT22;6868;52.544;13.416;2022-11-02T04:53:38;9.50;99.90
13596;DHT22;6868;52.544;13.416;2022-11-02T05:23:06;9.60;99.90
13596;DHT22;6868;52.544;13.416;2022-11-02T05:25:33;9.40;99.90
13596;DHT22;6868;52.544;13.416;2022-11-02T05:28:00;9.40;99.90
13596;DHT22;6868;52.544;13.416;2022-11-02T05:30:26;9.40;99.90
13596;DHT22;6868;52.544;13.416;2022-11-02T05:32:54;9.40;99.90
13596;DHT22;6868;52.544;13.416;2022-11-02T05:35:21;9.40;99.90
13596;DHT22;6868;52.544;13.416;2022-11-02T05:37:51;9.40;99.90
13596;DHT22;6868;52.544;13.416;2022-11-02T05:40:21;9.40;99.90
13596;DHT22;6868;52.544;13.416;2022-11-02T05:42:48;9.40;99.90
13596;DHT22;6868;52.544;13.416;2022-11-02T05:45:15;9.40;99.90
13596;DHT22;6868;52.544;13.416;2022-11-02T05:47:41;9.40;99.90
13596;DHT22;6868;52.544;13.416;2022-11-02T05:50:08;9.40;99.90
13596;DHT22;6868;52.544;13.416;2022-11-02T05:52:35;9.40;99.90
13596;DHT22;6868;52.544;13.416;2022-11-02T05:55:03;9.40;99.90
13596;DHT22;6868;52.544;13.416;2022-11-02T05:57:31;9.40;99.90
13596;DHT22;6868;52.544;13.416;2022-11-02T05:59:58;9.40;99.90
13596;DHT22;6868;52.544;13.416;2022-11-02T06:02:25;9.40;99.90
13596;DHT22;6868;52.544;13.416;2022-11-02T06:04:52;9.30;99.90
13596;DHT22;6868;52.544;13.416;2022-11-02T06:07:21;9.40;99.90
13596;DHT22;6868;52.544;13.416;2022-11-02T06:09:48;9.40;99.90
13596;DHT22;6868;52.544;13.416;2022-11-02T06:12:18;9.40;99.90
13596;DHT22;6868;52.544;13.416;2022-11-02T06:14:46;9.40;99.90
13596;DHT22;6868;52.544;13.416;2022-11-02T06:17:13;9.30;99.90
13596;DHT22;6868;52.544;13.416;2022-11-02T06:19:40;9.40;99.90
13596;DHT22;6868;52.544;13.416;2022-11-02T06:22:06;9.40;99.90
13596;DHT22;6868;52.544;13.416;2022-11-02T06:24:33;9.40;99.90
13596;DHT22;6868;52.544;13.416;2022-11-02T06:27:00;9.40;99.90
13596;DHT22;6868;52.544;13.416;2022-11-02T06:29:27;9.40;99.90
13596;DHT22;6868;52.544;13.416;2022-11-02T06:31:55;9.50;99.90
13596;DHT22;6868;52.544;13.416;2022-11-02T06:34:22;9.60;99.90
13596;DHT22;6868;52.544;13.416;2022-11-02T06:36:48;9.80;99.90
13596;DHT22;6868;52.544;13.416;2022-11-02T06:39:15;9.90;99.90
13596;DHT22;6868;52.544;13.416;2022-11-02T06:41:42;10.00;99.90
13596;DHT22;6868;52.544;13.416;2022-11-02T06:44:09;10.10;99.90
13596;DHT22;6868;52.544;13.416;2022-11-02T06:46:36;10.30;99.90
13596;DHT22;6868;52.544;13.416;2022-11-02T06:49:04;10.30;99.90
13596;DHT22;6868;52.544;13.416;2022-11-02T06:51:31;10.40;99.90
13596;DHT22;6868;52.544;13.416;2022-11-02T06:53:58;10.40;99.90
13596;DHT22;6868;52.544;13.416;2022-11-02T06:56:24;10.50;99.90
13596;DHT22;6868;52.544;13.416;2022-11-02T06:58:51;10.50;99.90
13596;DHT22;6868;52.544;13.416;2022-11-02T07:01:18;10.40;99.90
13596;DHT22;6868;52.544;13.416;2022-11-02T07:03:45;10.50;99.90
13596;DHT22;6868;52.544;13.416;2022-11-02T07:06:14;10.40;99.90
13596;DHT22;6868;52.544;13.416;2022-11-02T07:08:41;10.40;99.90
13596;DHT22;6868;52.544;13.416;2022-11-02T07:11:14;10.40;99.90
13596;DHT22;6868;52.544;13.416;2022-11-02T07:13:41;10.40;99.90
13596;DHT22;6868;52.544;13.416;2022-11-02T07:16:08;10.40;99.90
13596;DHT22;6868;52.544;13.416;2022-11-02T07:18:34;10.40;99.90
13596;DHT22;6868;52.544;13.416;2022-11-02T07:21:01;10.40;99.90
13596;DHT22;6868;52.544;13.416;2022-11-02T07:23:30;10.50;99.90
13596;DHT22;6868;52.544;13.416;2022-11-02T07:25:57;10.40;99.90
13596;DHT22;6868;52.544;13.416;2022-11-02T07:28:23;10.50;99.90
13596;DHT22;6868;52.544;13.416;2022-11-02T07:30:52;10.60;99.90
13596;DHT22;6868;52.544;13.416;2022-11-02T07:33:19;10.80;99.90
13596;DHT22;6868;52.544;13.416;2022-11-02T07:35:46;10.80;99.90
13596;DHT22;6868;52.544;13.416;2022-11-02T07:38:13;11.00;99.90
13596;DHT22;6868;52.544;13.416;2022-11-02T07:40:41;11.10;99.90
13596;DHT22;6868;52.544;13.416;2022-11-02T07:43:08;11.30;99.90
13596;DHT22;6868;52.544;13.416;2022-11-02T07:45:35;11.40;99.90
13596;DHT22;6868;52.544;13.416;2022-11-02T07:48:01;11.50;99.90
13596;DHT22;6868;52.544;13.416;2022-11-02T07:50:31;11.60;99.90
13596;DHT22;6868;52.544;13.416;2022-11-02T07:52:57;11.80;99.90
13596;DHT22;6868;52.544;13.416;2022-11-02T07:55:25;12.00;99.90
13596;DHT22;6868;52.544;13.416;2022-11-02T07:57:54;12.10;99.90
13596;DHT22;6868;52.544;13.416;2022-11-02T08:00:21;12.30;99.90
13596;DHT22;6868;52.544;13.416;2022-11-02T08:02:48;12.50;99.90
13596;DHT22;6868;52.544;13.416;2022-11-02T08:05:15;12.70;99.90
13596;DHT22;6868;52.544;13.416;2022-11-02T08:56:50;12.80;99.90
13596;DHT22;6868;52.544;13.416;2022-11-02T08:59:16;12.60;99.90
13596;DHT22;6868;52.544;13.416;2022-11-02T09:01:43;12.60;99.90
13596;DHT22;6868;52.544;13.416;2022-11-02T09:04:10;12.50;99.90
13596;DHT22;6868;52.544;13.416;2022-11-02T09:06:36;12.50;99.90
13596;DHT22;6868;52.544;13.416;2022-11-02T09:09:03;12.50;99.90
13596;DHT22;6868;52.544;13.416;2022-11-02T09:11:30;12.50;99.90
13596;DHT22;6868;52.544;13.416;2022-11-02T09:13:58;12.70;99.90
13596;DHT22;6868;52.544;13.416;2022-11-02T09:16:24;12.80;99.90
13596;DHT22;6868;52.544;13.416;2022-11-02T09:18:51;12.90;99.90
13596;DHT22;6868;52.544;13.416;2022-11-02T09:21:18;13.00;99.90
